sensor_id;sensor_type;location;lat;lon;timestamp;P1;durP1;ratioP1;P2;durP2;ratioP2
56519;SDS011;42420;53.586;10.052;2023-04-29T00:00:00;14.88;;;8.40;;
56519;SDS011;42420;53.586;10.052;2023-04-29T00:04:57;13.32;;;8.40;;
56519;SDS011;42420;53.586;10.052;2023-04-29T00:09:55;14.13;;;7.72;;
56519;SDS011;42420;53.586;10.052;2023-04-29T00:14:51;14.18;;;7.45;;
56519;SDS011;42420;53.586;10.052;2023-04-29T00:19:48;14.32;;;8.18;;
56519;SDS011;42420;53.586;10.052;2023-04-29T00:24:46;13.90;;;8.15;;
56519;SDS011;42420;53.586;10.052;2023-04-29T00:29:42;15.82;;;9.15;;
56519;SDS011;42420;53.586;10.052;2023-04-29T00:34:39;14.13;;;8.65;;
56519;SDS011;42420;53.586;10.052;2023-04-29T00:39:36;15.80;;;9.35;;
56519;SDS011;42420;53.586;10.052;2023-04-29T00:44:32;16.15;;;9.55;;
56519;SDS011;42420;53.586;10.052;2023-04-29T00:49:32;14.85;;;9.77;;
56519;SDS011;42420;53.586;10.052;2023-04-29T00:54:28;17.67;;;9.13;;
56519;SDS011;42420;53.586;10.052;2023-04-29T00:59:27;14.18;;;9.15;;
56519;SDS011;42420;53.586;10.052;2023-04-29T01:04:27;13.30;;;9.20;;
56519;SDS011;42420;53.586;10.052;2023-04-29T01:14:33;16.10;;;10.23;;
56519;SDS011;42420;53.586;10.052;2023-04-29T01:19:39;15.60;;;9.38;;
56519;SDS011;42420;53.586;10.052;2023-04-29T01:24:48;14.25;;;9.45;;
56519;SDS011;42420;53.586;10.052;2023-04-29T01:35:02;14.15;;;9.23;;
56519;SDS011;42420;53.586;10.052;2023-04-29T01:40:17;13.80;;;9.55;;
56519;SDS011;42420;53.586;10.052;2023-04-29T01:45:15;16.38;;;10.13;;
56519;SDS011;42420;53.586;10.052;2023-04-29T01:50:13;16.88;;;10.25;;
56519;SDS011;42420;53.586;10.052;2023-04-29T01:55:09;20.95;;;11.10;;
56519;SDS011;42420;53.586;10.052;2023-04-29T02:00:13;17.00;;;10.32;;
56519;SDS011;42420;53.586;10.052;2023-04-29T02:05:10;16.02;;;10.68;;
56519;SDS011;42420;53.586;10.052;2023-04-29T02:10:06;16.30;;;10.77;;
56519;SDS011;42420;53.586;10.052;2023-04-29T02:20:00;17.73;;;11.07;;
56519;SDS011;42420;53.586;10.052;2023-04-29T02:24:57;15.50;;;9.98;;
56519;SDS011;42420;53.586;10.052;2023-04-29T02:29:54;17.15;;;10.68;;
56519;SDS011;42420;53.586;10.052;2023-04-29T02:34:52;19.70;;;11.10;;
56519;SDS011;42420;53.586;10.052;2023-04-29T02:39:48;16.45;;;10.90;;
56519;SDS011;42420;53.586;10.052;2023-04-29T02:44:45;15.07;;;10.80;;
56519;SDS011;42420;53.586;10.052;2023-04-29T02:49:41;15.13;;;10.45;;
56519;SDS011;42420;53.586;10.052;2023-04-29T02:54:38;17.20;;;10.88;;
56519;SDS011;42420;53.586;10.052;2023-04-29T02:59:35;15.73;;;9.82;;
56519;SDS011;42420;53.586;10.052;2023-04-29T03:04:32;17.63;;;10.98;;
56519;SDS011;42420;53.586;10.052;2023-04-29T03:09:28;16.25;;;10.20;;
56519;SDS011;42420;53.586;10.052;2023-04-29T03:14:25;16.08;;;10.30;;
56519;SDS011;42420;53.586;10.052;2023-04-29T03:24:19;16.30;;;10.20;;
56519;SDS011;42420;53.586;10.052;2023-04-29T03:29:16;19.88;;;10.73;;
56519;SDS011;42420;53.586;10.052;2023-04-29T03:34:12;15.75;;;9.60;;
56519;SDS011;42420;53.586;10.052;2023-04-29T03:39:13;15.25;;;9.70;;
56519;SDS011;42420;53.586;10.052;2023-04-29T03:44:10;18.08;;;10.70;;
56519;SDS011;42420;53.586;10.052;2023-04-29T03:49:06;15.15;;;10.90;;
56519;SDS011;42420;53.586;10.052;2023-04-29T03:54:08;16.25;;;10.60;;
56519;SDS011;42420;53.586;10.052;2023-04-29T03:59:05;17.67;;;11.68;;
56519;SDS011;42420;53.586;10.052;2023-04-29T04:04:01;17.60;;;11.15;;
56519;SDS011;42420;53.586;10.052;2023-04-29T04:09:00;17.45;;;10.90;;
56519;SDS011;42420;53.586;10.052;2023-04-29T04:13:56;16.55;;;11.60;;
56519;SDS011;42420;53.586;10.052;2023-04-29T04:18:53;15.88;;;10.40;;
56519;SDS011;42420;53.586;10.052;2023-04-29T04:23:49;15.32;;;10.35;;
56519;SDS011;42420;53.586;10.052;2023-04-29T04:28:46;16.45;;;10.90;;
56519;SDS011;42420;53.586;10.052;2023-04-29T04:33:43;16.27;;;11.18;;
56519;SDS011;42420;53.586;10.052;2023-04-29T04:38:39;19.40;;;10.85;;
56519;SDS011;42420;53.586;10.052;2023-04-29T04:43:36;15.93;;;10.90;;
56519;SDS011;42420;53.586;10.052;2023-04-29T04:48:32;16.65;;;10.88;;
56519;SDS011;42420;53.586;10.052;2023-04-29T04:53:29;15.70;;;10.63;;
56519;SDS011;42420;53.586;10.052;2023-04-29T04:58:25;18.98;;;11.57;;
56519;SDS011;42420;53.586;10.052;2023-04-29T05:03:22;16.92;;;10.68;;
56519;SDS011;42420;53.586;10.052;2023-04-29T05:13:15;20.48;;;10.38;;
56519;SDS011;42420;53.586;10.052;2023-04-29T05:18:15;16.02;;;9.65;;
56519;SDS011;42420;53.586;10.052;2023-04-29T05:23:11;16.35;;;9.35;;
56519;SDS011;42420;53.586;10.052;2023-04-29T05:28:08;16.50;;;10.27;;
56519;SDS011;42420;53.586;10.052;2023-04-29T05:33:10;18.42;;;9.93;;
56519;SDS011;42420;53.586;10.052;2023-04-29T05:38:07;16.35;;;9.20;;
56519;SDS011;42420;53.586;10.052;2023-04-29T05:43:03;13.00;;;7.50;;
56519;SDS011;42420;53.586;10.052;2023-04-29T05:48:00;14.30;;;8.07;;
56519;SDS011;42420;53.586;10.052;2023-04-29T05:52:57;11.63;;;7.63;;
56519;SDS011;42420;53.586;10.052;2023-04-29T05:57:53;10.07;;;6.28;;
56519;SDS011;42420;53.586;10.052;2023-04-29T06:02:50;12.75;;;6.38;;
56519;SDS011;42420;53.586;10.052;2023-04-29T06:07:54;10.93;;;6.32;;
56519;SDS011;42420;53.586;10.052;2023-04-29T06:17:47;9.57;;;5.55;;
56519;SDS011;42420;53.586;10.052;2023-04-29T06:27:40;10.15;;;5.45;;
56519;SDS011;42420;53.586;10.052;2023-04-29T06:32:37;15.02;;;6.85;;
56519;SDS011;42420;53.586;10.052;2023-04-29T06:37:35;11.13;;;6.13;;
56519;SDS011;42420;53.586;10.052;2023-04-29T06:42:40;11.25;;;5.70;;
56519;SDS011;42420;53.586;10.052;2023-04-29T06:47:38;10.10;;;5.75;;
56519;SDS011;42420;53.586;10.052;2023-04-29T06:57:30;10.75;;;6.72;;
56519;SDS011;42420;53.586;10.052;2023-04-29T07:02:27;10.80;;;6.47;;
56519;SDS011;42420;53.586;10.052;2023-04-29T07:07:24;13.02;;;6.30;;
56519;SDS011;42420;53.586;10.052;2023-04-29T07:17:17;8.55;;;5.50;;
56519;SDS011;42420;53.586;10.052;2023-04-29T07:22:14;10.30;;;4.88;;
56519;SDS011;42420;53.586;10.052;2023-04-29T07:32:09;9.27;;;4.60;;
56519;SDS011;42420;53.586;10.052;2023-04-29T07:37:07;11.73;;;4.70;;
56519;SDS011;42420;53.586;10.052;2023-04-29T07:42:04;8.65;;;4.75;;
56519;SDS011;42420;53.586;10.052;2023-04-29T07:51:57;9.10;;;5.10;;
56519;SDS011;42420;53.586;10.052;2023-04-29T08:01:52;9.30;;;5.38;;
56519;SDS011;42420;53.586;10.052;2023-04-29T08:06:49;9.98;;;4.63;;
56519;SDS011;42420;53.586;10.052;2023-04-29T08:16:44;9.68;;;5.10;;
56519;SDS011;42420;53.586;10.052;2023-04-29T08:26:38;7.80;;;4.60;;
56519;SDS011;42420;53.586;10.052;2023-04-29T08:31:41;10.73;;;4.38;;
56519;SDS011;42420;53.586;10.052;2023-04-29T08:36:41;8.85;;;4.88;;
56519;SDS011;42420;53.586;10.052;2023-04-29T08:41:37;7.78;;;4.88;;
56519;SDS011;42420;53.586;10.052;2023-04-29T08:46:35;10.15;;;5.32;;
56519;SDS011;42420;53.586;10.052;2023-04-29T08:51:40;12.23;;;5.32;;
56519;SDS011;42420;53.586;10.052;2023-04-29T09:01:34;10.88;;;5.68;;
56519;SDS011;42420;53.586;10.052;2023-04-29T09:06:44;10.30;;;5.70;;
56519;SDS011;42420;53.586;10.052;2023-04-29T09:11:50;9.88;;;5.53;;
56519;SDS011;42420;53.586;10.052;2023-04-29T09:16:52;11.32;;;5.40;;
56519;SDS011;42420;53.586;10.052;2023-04-29T09:39:09;9.38;;;5.63;;
56519;SDS011;42420;53.586;10.052;2023-04-29T09:44:50;9.95;;;5.43;;
56519;SDS011;42420;53.586;10.052;2023-04-29T09:55:27;9.30;;;5.70;;
56519;SDS011;42420;53.586;10.052;2023-04-29T10:00:37;9.98;;;5.75;;
56519;SDS011;42420;53.586;10.052;2023-04-29T10:05:48;9.57;;;4.97;;
56519;SDS011;42420;53.586;10.052;2023-04-29T10:16:43;8.32;;;4.63;;
56519;SDS011;42420;53.586;10.052;2023-04-29T10:21:57;8.65;;;5.13;;
56519;SDS011;42420;53.586;10.052;2023-04-29T10:27:01;8.52;;;5.07;;
56519;SDS011;42420;53.586;10.052;2023-04-29T10:33:00;14.70;;;6.57;;
56519;SDS011;42420;53.586;10.052;2023-04-29T10:44:04;9.95;;;4.07;;
56519;SDS011;42420;53.586;10.052;2023-04-29T10:49:35;9.82;;;5.43;;
56519;SDS011;42420;53.586;10.052;2023-04-29T11:00:41;10.48;;;5.50;;
56519;SDS011;42420;53.586;10.052;2023-04-29T11:06:14;11.32;;;5.50;;
56519;SDS011;42420;53.586;10.052;2023-04-29T11:12:02;8.93;;;5.00;;
56519;SDS011;42420;53.586;10.052;2023-04-29T11:17:34;10.55;;;4.70;;
56519;SDS011;42420;53.586;10.052;2023-04-29T11:22:42;9.57;;;5.43;;
56519;SDS011;42420;53.586;10.052;2023-04-29T11:28:30;10.05;;;5.28;;
56519;SDS011;42420;53.586;10.052;2023-04-29T11:38:58;9.60;;;5.68;;
56519;SDS011;42420;53.586;10.052;2023-04-29T11:44:05;8.88;;;5.43;;
56519;SDS011;42420;53.586;10.052;2023-04-29T11:49:29;9.90;;;5.47;;
56519;SDS011;42420;53.586;10.052;2023-04-29T11:54:42;9.77;;;5.00;;
56519;SDS011;42420;53.586;10.052;2023-04-29T11:59:55;9.55;;;4.90;;
56519;SDS011;42420;53.586;10.052;2023-04-29T12:05:02;11.75;;;5.53;;
56519;SDS011;42420;53.586;10.052;2023-04-29T12:10:21;10.57;;;4.85;;
56519;SDS011;42420;53.586;10.052;2023-04-29T12:15:26;9.32;;;4.50;;
56519;SDS011;42420;53.586;10.052;2023-04-29T12:20:37;9.90;;;4.53;;
56519;SDS011;42420;53.586;10.052;2023-04-29T12:25:57;8.82;;;4.45;;
56519;SDS011;42420;53.586;10.052;2023-04-29T12:31:01;8.43;;;3.92;;
56519;SDS011;42420;53.586;10.052;2023-04-29T12:36:40;8.00;;;3.40;;
56519;SDS011;42420;53.586;10.052;2023-04-29T12:47:08;8.20;;;2.60;;
56519;SDS011;42420;53.586;10.052;2023-04-29T12:52:13;8.18;;;3.50;;
56519;SDS011;42420;53.586;10.052;2023-04-29T12:57:24;8.70;;;3.22;;
56519;SDS011;42420;53.586;10.052;2023-04-29T13:02:50;8.77;;;3.22;;
56519;SDS011;42420;53.586;10.052;2023-04-29T13:07:59;9.07;;;3.58;;
56519;SDS011;42420;53.586;10.052;2023-04-29T13:13:08;12.57;;;5.20;;
56519;SDS011;42420;53.586;10.052;2023-04-29T13:18:25;9.13;;;3.95;;
56519;SDS011;42420;53.586;10.052;2023-04-29T13:23:34;10.60;;;4.10;;
56519;SDS011;42420;53.586;10.052;2023-04-29T13:29:02;7.60;;;3.90;;
56519;SDS011;42420;53.586;10.052;2023-04-29T13:34:30;9.05;;;3.70;;
56519;SDS011;42420;53.586;10.052;2023-04-29T13:39:43;10.32;;;3.25;;
56519;SDS011;42420;53.586;10.052;2023-04-29T13:44:55;7.90;;;3.60;;
56519;SDS011;42420;53.586;10.052;2023-04-29T13:49:59;4.93;;;2.20;;
56519;SDS011;42420;53.586;10.052;2023-04-29T13:55:24;6.72;;;2.20;;
56519;SDS011;42420;53.586;10.052;2023-04-29T14:01:01;8.57;;;2.17;;
56519;SDS011;42420;53.586;10.052;2023-04-29T14:06:29;4.88;;;1.73;;
56519;SDS011;42420;53.586;10.052;2023-04-29T14:16:33;6.05;;;2.00;;
56519;SDS011;42420;53.586;10.052;2023-04-29T14:21:32;7.13;;;2.33;;
56519;SDS011;42420;53.586;10.052;2023-04-29T14:26:31;6.57;;;1.75;;
56519;SDS011;42420;53.586;10.052;2023-04-29T14:31:28;5.40;;;2.05;;
56519;SDS011;42420;53.586;10.052;2023-04-29T14:36:28;5.13;;;1.63;;
56519;SDS011;42420;53.586;10.052;2023-04-29T14:41:34;4.22;;;1.60;;
56519;SDS011;42420;53.586;10.052;2023-04-29T14:46:31;5.05;;;2.05;;
56519;SDS011;42420;53.586;10.052;2023-04-29T14:51:37;5.68;;;1.77;;
56519;SDS011;42420;53.586;10.052;2023-04-29T14:56:39;5.63;;;1.60;;
56519;SDS011;42420;53.586;10.052;2023-04-29T15:01:36;6.72;;;2.40;;
56519;SDS011;42420;53.586;10.052;2023-04-29T15:06:41;5.85;;;2.63;;
56519;SDS011;42420;53.586;10.052;2023-04-29T15:11:38;5.68;;;1.58;;
56519;SDS011;42420;53.586;10.052;2023-04-29T15:16:36;4.53;;;1.50;;
56519;SDS011;42420;53.586;10.052;2023-04-29T15:21:33;4.05;;;1.25;;
56519;SDS011;42420;53.586;10.052;2023-04-29T15:26:33;4.40;;;1.65;;
56519;SDS011;42420;53.586;10.052;2023-04-29T15:31:32;7.50;;;2.50;;
56519;SDS011;42420;53.586;10.052;2023-04-29T15:36:35;7.13;;;1.92;;
56519;SDS011;42420;53.586;10.052;2023-04-29T15:41:32;4.38;;;1.30;;
56519;SDS011;42420;53.586;10.052;2023-04-29T15:46:29;4.88;;;1.80;;
56519;SDS011;42420;53.586;10.052;2023-04-29T15:51:25;7.05;;;2.33;;
56519;SDS011;42420;53.586;10.052;2023-04-29T15:56:22;5.47;;;2.00;;
56519;SDS011;42420;53.586;10.052;2023-04-29T16:01:19;6.38;;;1.88;;
56519;SDS011;42420;53.586;10.052;2023-04-29T16:11:12;6.65;;;2.38;;
56519;SDS011;42420;53.586;10.052;2023-04-29T16:21:32;7.03;;;2.30;;
56519;SDS011;42420;53.586;10.052;2023-04-29T16:26:29;7.30;;;2.97;;
56519;SDS011;42420;53.586;10.052;2023-04-29T16:31:29;6.65;;;2.33;;
56519;SDS011;42420;53.586;10.052;2023-04-29T16:36:37;9.63;;;3.20;;
56519;SDS011;42420;53.586;10.052;2023-04-29T16:41:39;6.70;;;1.75;;
56519;SDS011;42420;53.586;10.052;2023-04-29T16:46:36;7.20;;;2.13;;
56519;SDS011;42420;53.586;10.052;2023-04-29T16:51:35;7.00;;;1.90;;
56519;SDS011;42420;53.586;10.052;2023-04-29T16:56:34;10.15;;;2.78;;
56519;SDS011;42420;53.586;10.052;2023-04-29T17:01:31;8.65;;;2.63;;
56519;SDS011;42420;53.586;10.052;2023-04-29T17:06:35;9.38;;;3.00;;
56519;SDS011;42420;53.586;10.052;2023-04-29T17:11:32;10.38;;;2.50;;
56519;SDS011;42420;53.586;10.052;2023-04-29T17:16:29;7.93;;;2.38;;
56519;SDS011;42420;53.586;10.052;2023-04-29T17:21:28;11.93;;;2.58;;
56519;SDS011;42420;53.586;10.052;2023-04-29T17:26:27;7.85;;;1.83;;
56519;SDS011;42420;53.586;10.052;2023-04-29T17:31:31;7.43;;;2.28;;
56519;SDS011;42420;53.586;10.052;2023-04-29T17:36:40;9.90;;;2.15;;
56519;SDS011;42420;53.586;10.052;2023-04-29T17:41:37;8.15;;;1.92;;
56519;SDS011;42420;53.586;10.052;2023-04-29T18:18:04;9.82;;;2.83;;
56519;SDS011;42420;53.586;10.052;2023-04-29T18:48:06;7.65;;;1.77;;
56519;SDS011;42420;53.586;10.052;2023-04-29T19:23:33;10.45;;;2.40;;
56519;SDS011;42420;53.586;10.052;2023-04-29T19:49:32;10.27;;;2.05;;
56519;SDS011;42420;53.586;10.052;2023-04-29T20:02:02;9.73;;;2.20;;
56519;SDS011;42420;53.586;10.052;2023-04-29T20:07:16;8.18;;;2.28;;
56519;SDS011;42420;53.586;10.052;2023-04-29T20:13:11;8.65;;;2.17;;
56519;SDS011;42420;53.586;10.052;2023-04-29T20:18:46;8.85;;;2.20;;
56519;SDS011;42420;53.586;10.052;2023-04-29T20:24:17;8.85;;;2.25;;
56519;SDS011;42420;53.586;10.052;2023-04-29T20:30:03;12.65;;;2.25;;
56519;SDS011;42420;53.586;10.052;2023-04-29T20:41:19;13.43;;;3.13;;
56519;SDS011;42420;53.586;10.052;2023-04-29T20:47:36;9.93;;;1.67;;
56519;SDS011;42420;53.586;10.052;2023-04-29T20:53:33;10.67;;;2.73;;
56519;SDS011;42420;53.586;10.052;2023-04-29T20:58:57;10.27;;;2.83;;
56519;SDS011;42420;53.586;10.052;2023-04-29T21:10:22;9.30;;;1.85;;
56519;SDS011;42420;53.586;10.052;2023-04-29T21:33:49;9.60;;;2.20;;
56519;SDS011;42420;53.586;10.052;2023-04-29T21:40:01;9.98;;;2.25;;
56519;SDS011;42420;53.586;10.052;2023-04-29T21:52:23;13.20;;;2.60;;
56519;SDS011;42420;53.586;10.052;2023-04-29T21:58:54;13.43;;;2.88;;
56519;SDS011;42420;53.586;10.052;2023-04-29T22:03:57;12.25;;;2.35;;
56519;SDS011;42420;53.586;10.052;2023-04-29T22:13:53;10.60;;;3.30;;
56519;SDS011;42420;53.586;10.052;2023-04-29T22:18:53;8.70;;;2.17;;
56519;SDS011;42420;53.586;10.052;2023-04-29T22:23:50;10.73;;;2.28;;
56519;SDS011;42420;53.586;10.052;2023-04-29T22:28:48;11.25;;;2.83;;
56519;SDS011;42420;53.586;10.052;2023-04-29T22:33:45;13.73;;;2.90;;
56519;SDS011;42420;53.586;10.052;2023-04-29T22:38:41;10.27;;;2.65;;
56519;SDS011;42420;53.586;10.052;2023-04-29T22:43:38;12.13;;;2.50;;
56519;SDS011;42420;53.586;10.052;2023-04-29T22:48:35;12.00;;;2.78;;
56519;SDS011;42420;53.586;10.052;2023-04-29T22:53:32;8.65;;;2.40;;
56519;SDS011;42420;53.586;10.052;2023-04-29T22:58:29;11.88;;;3.15;;
56519;SDS011;42420;53.586;10.052;2023-04-29T23:03:26;10.70;;;2.60;;
56519;SDS011;42420;53.586;10.052;2023-04-29T23:08:23;11.48;;;3.10;;
56519;SDS011;42420;53.586;10.052;2023-04-29T23:13:21;14.55;;;2.92;;
56519;SDS011;42420;53.586;10.052;2023-04-29T23:18:22;12.95;;;3.38;;
56519;SDS011;42420;53.586;10.052;2023-04-29T23:23:19;12.02;;;3.10;;
56519;SDS011;42420;53.586;10.052;2023-04-29T23:28:17;13.95;;;3.30;;
56519;SDS011;42420;53.586;10.052;2023-04-29T23:33:14;17.13;;;3.83;;
56519;SDS011;42420;53.586;10.052;2023-04-29T23:38:11;10.93;;;3.20;;
56519;SDS011;42420;53.586;10.052;2023-04-29T23:43:09;12.77;;;2.88;;
56519;SDS011;42420;53.586;10.052;2023-04-29T23:48:06;18.58;;;6.32;;
56519;SDS011;42420;53.586;10.052;2023-04-29T23:53:04;16.83;;;3.92;;
